createdAt,value
2022-11-24T00:01:08.797Z,9.93
2022-11-24T00:03:36.208Z,9.07
2022-11-24T00:06:15.028Z,7.53
2022-11-24T00:08:44.147Z,10.67
2022-11-24T00:11:16.262Z,9.60
2022-11-24T00:13:44.289Z,8.98
2022-11-24T00:16:11.409Z,10.80
2022-11-24T00:18:39.648Z,9.50
2022-11-24T00:21:07.433Z,10.27
2022-11-24T00:23:36.689Z,9.63
2022-11-24T00:26:13.436Z,10.80
2022-11-24T00:28:41.955Z,11.77
2022-11-24T00:31:24.832Z,10.70
2022-11-24T00:33:54.104Z,8.67
2022-11-24T00:36:22.346Z,9.93
2022-11-24T00:38:56.502Z,10.45
2022-11-24T00:41:25.349Z,10.13
2022-11-24T00:43:52.823Z,11.30
2022-11-24T00:46:20.417Z,9.83
2022-11-24T00:48:47.848Z,9.65
2022-11-24T00:51:16.508Z,10.32
2022-11-24T00:53:43.962Z,10.82
2022-11-24T00:56:11.977Z,10.10
2022-11-24T00:58:40.978Z,9.23
2022-11-24T01:01:13.265Z,10.10
2022-11-24T01:03:42.881Z,11.13
2022-11-24T01:06:12.793Z,10.75
2022-11-24T01:08:41.228Z,12.30
2022-11-24T01:11:17.299Z,9.57
2022-11-24T01:13:47.806Z,11.02
2022-11-24T01:16:18.600Z,11.82
2022-11-24T01:18:46.378Z,12.13
2022-11-24T01:21:14.199Z,11.18
2022-11-24T01:23:41.222Z,10.97
2022-11-24T01:26:10.920Z,10.75
2022-11-24T01:28:44.853Z,11.30
2022-11-24T01:31:14.893Z,12.07
2022-11-24T01:33:42.296Z,10.25
2022-11-24T01:36:09.133Z,12.07
2022-11-24T01:38:36.102Z,9.27
2022-11-24T01:41:08.244Z,10.27
2022-11-24T01:43:36.466Z,10.95
2022-11-24T01:46:29.175Z,11.45
2022-11-24T01:49:16.776Z,12.53
2022-11-24T01:51:51.626Z,11.32
2022-11-24T01:54:30.454Z,12.70
2022-11-24T01:57:17.244Z,11.55
2022-11-24T01:59:49.115Z,12.30
2022-11-24T02:02:22.127Z,12.07
2022-11-24T02:04:50.853Z,12.38
2022-11-24T02:07:19.147Z,12.38
2022-11-24T02:09:53.087Z,11.45
2022-11-24T02:12:23.313Z,13.30
2022-11-24T02:14:53.295Z,14.57
2022-11-24T02:17:20.915Z,13.60
2022-11-24T02:20:10.048Z,13.35
2022-11-24T02:23:15.518Z,14.32
2022-11-24T02:25:45.497Z,14.93
2022-11-24T02:28:17.258Z,14.57
2022-11-24T02:30:44.786Z,14.57
2022-11-24T02:33:12.567Z,13.75
2022-11-24T02:35:41.442Z,14.45
2022-11-24T02:38:13.427Z,14.48
2022-11-24T02:40:44.408Z,15.73
2022-11-24T02:43:16.150Z,15.07
2022-11-24T02:45:43.280Z,14.40
2022-11-24T02:48:10.178Z,13.52
2022-11-24T02:50:37.976Z,14.95
2022-11-24T02:53:04.788Z,14.93
2022-11-24T02:55:31.940Z,17.48
2022-11-24T02:57:58.918Z,14.70
2022-11-24T03:00:26.789Z,15.50
2022-11-24T03:02:53.670Z,14.10
2022-11-24T03:05:20.510Z,12.40
2022-11-24T03:07:47.501Z,13.32
2022-11-24T03:10:14.331Z,11.60
2022-11-24T03:12:41.261Z,13.32
2022-11-24T03:15:08.543Z,12.10
2022-11-24T03:17:35.553Z,11.00
2022-11-24T03:20:04.987Z,11.48
2022-11-24T03:22:32.441Z,13.90
2022-11-24T03:24:59.193Z,10.88
2022-11-24T03:27:26.052Z,11.13
2022-11-24T03:29:52.922Z,11.33
2022-11-24T03:32:19.758Z,11.02
2022-11-24T03:34:46.585Z,12.73
2022-11-24T03:37:13.444Z,10.75
2022-11-24T03:39:40.248Z,9.82
2022-11-24T03:42:07.282Z,12.23
2022-11-24T03:44:34.298Z,9.65
2022-11-24T03:47:01.505Z,12.30
2022-11-24T03:49:28.254Z,9.95
2022-11-24T03:51:55.116Z,10.98
2022-11-24T03:54:22.014Z,10.13
2022-11-24T03:56:48.817Z,10.52
2022-11-24T03:59:15.828Z,12.57
2022-11-24T04:01:42.692Z,12.90
2022-11-24T04:04:11.796Z,12.05
2022-11-24T04:06:39.008Z,12.10
2022-11-24T04:09:06.106Z,10.85
2022-11-24T04:11:32.968Z,10.82
2022-11-24T04:13:59.730Z,10.65
2022-11-24T04:16:26.709Z,12.40
2022-11-24T04:18:53.919Z,13.03
2022-11-24T04:21:21.222Z,10.90
2022-11-24T04:23:48.060Z,11.00
2022-11-24T04:26:15.031Z,11.25
2022-11-24T04:28:42.721Z,10.40
2022-11-24T04:31:09.785Z,9.60
2022-11-24T04:33:36.669Z,10.90
2022-11-24T04:36:04.060Z,8.98
2022-11-24T04:39:24.932Z,9.43
2022-11-24T04:41:18.363Z,10.30
2022-11-24T04:43:45.120Z,7.50
2022-11-24T04:46:12.088Z,8.13
2022-11-24T04:48:38.921Z,8.23
2022-11-24T04:51:06.708Z,8.80
2022-11-24T04:53:33.664Z,8.55
2022-11-24T04:56:05.407Z,7.50
2022-11-24T04:58:32.893Z,8.18
2022-11-24T05:01:00.096Z,7.43
2022-11-24T05:03:26.851Z,6.07
2022-11-24T05:05:53.750Z,6.95
2022-11-24T05:08:20.473Z,7.37
2022-11-24T05:10:47.276Z,6.13
2022-11-24T05:13:14.618Z,6.47
2022-11-24T05:15:42.403Z,5.63
2022-11-24T05:18:12.684Z,6.22
2022-11-24T05:20:39.496Z,5.50
2022-11-24T05:23:08.492Z,6.35
2022-11-24T05:25:35.908Z,5.38
2022-11-24T05:28:04.164Z,6.47
2022-11-24T05:30:32.479Z,5.50
2022-11-24T05:32:59.288Z,5.37
2022-11-24T05:35:26.184Z,5.32
2022-11-24T05:37:53.857Z,6.80
2022-11-24T05:40:20.556Z,4.78
2022-11-24T05:42:48.368Z,5.35
2022-11-24T05:45:18.138Z,6.03
2022-11-24T05:47:45.532Z,4.22
2022-11-24T05:50:14.909Z,4.50
2022-11-24T05:52:42.045Z,5.10
2022-11-24T05:55:10.460Z,4.82
2022-11-24T05:57:37.473Z,3.50
2022-11-24T06:00:08.808Z,3.63
2022-11-24T06:02:41.936Z,4.15
2022-11-24T06:05:09.168Z,4.03
2022-11-24T06:07:36.246Z,3.25
2022-11-24T06:10:05.163Z,3.77
2022-11-24T06:12:33.710Z,3.33
2022-11-24T06:15:00.434Z,3.55
2022-11-24T06:17:27.501Z,2.88
2022-11-24T06:19:54.251Z,2.78
2022-11-24T06:22:21.234Z,3.60
2022-11-24T06:24:48.109Z,3.05
2022-11-24T06:27:14.869Z,2.72
2022-11-24T06:29:41.805Z,3.15
2022-11-24T06:32:09.287Z,2.50
2022-11-24T06:34:36.970Z,2.70
2022-11-24T06:37:04.255Z,2.72
2022-11-24T06:39:31.059Z,3.60
2022-11-24T06:41:57.865Z,3.25
2022-11-24T06:44:24.808Z,3.80
2022-11-24T06:46:51.706Z,3.27
2022-11-24T06:49:18.998Z,3.08
2022-11-24T06:51:46.030Z,3.67
2022-11-24T06:54:18.328Z,2.63
2022-11-24T06:56:45.296Z,3.42
2022-11-24T06:59:20.709Z,3.93
2022-11-24T07:01:48.115Z,2.72
2022-11-24T07:04:15.608Z,3.38
2022-11-24T07:06:43.446Z,3.42
2022-11-24T07:09:11.898Z,3.55
2022-11-24T07:11:40.402Z,3.43
2022-11-24T07:14:07.738Z,4.53
2022-11-24T07:16:34.627Z,4.13
2022-11-24T07:19:01.504Z,3.35
2022-11-24T07:21:29.549Z,4.13
2022-11-24T07:23:58.050Z,3.03
2022-11-24T07:26:26.232Z,3.53
2022-11-24T07:28:53.060Z,3.47
2022-11-24T07:31:22.253Z,3.67
2022-11-24T07:33:50.250Z,3.88
2022-11-24T07:36:17.480Z,3.77
2022-11-24T07:38:44.319Z,3.92
2022-11-24T07:41:13.462Z,2.88
2022-11-24T07:43:41.079Z,2.58
2022-11-24T07:46:11.799Z,3.28
2022-11-24T07:48:39.099Z,3.63
2022-11-24T07:51:06.798Z,4.22
2022-11-24T07:53:34.361Z,3.17
2022-11-24T07:56:03.469Z,3.10
2022-11-24T07:58:33.438Z,2.63
2022-11-24T08:01:08.785Z,3.73
2022-11-24T08:03:35.945Z,2.65
2022-11-24T08:08:49.744Z,3.28
2022-11-24T08:11:18.078Z,2.65
2022-11-24T08:13:44.969Z,2.40
2022-11-24T08:16:14.188Z,2.88
2022-11-24T08:18:42.665Z,2.83
2022-11-24T08:21:13.733Z,2.97
2022-11-24T08:23:41.116Z,3.65
2022-11-24T08:26:13.996Z,4.03
2022-11-24T08:28:40.867Z,2.40
2022-11-24T08:31:18.772Z,3.05
2022-11-24T08:33:46.894Z,2.72
2022-11-24T08:36:16.646Z,4.63
2022-11-24T08:38:44.496Z,2.37
2022-11-24T08:41:14.617Z,2.65
2022-11-24T08:43:41.746Z,2.25
2022-11-24T08:46:12.277Z,2.85
2022-11-24T08:48:39.642Z,3.30
2022-11-24T08:51:11.538Z,2.10
2022-11-24T08:53:39.247Z,3.00
2022-11-24T08:56:08.193Z,3.45
2022-11-24T08:58:35.711Z,2.53
2022-11-24T09:01:05.541Z,3.50
2022-11-24T09:03:32.662Z,3.33
2022-11-24T09:05:59.458Z,3.33
2022-11-24T09:08:26.478Z,2.38
2022-11-24T09:10:53.262Z,4.18
2022-11-24T09:13:20.069Z,3.35
2022-11-24T09:15:46.951Z,3.60
2022-11-24T09:18:13.773Z,3.35
2022-11-24T09:23:25.014Z,4.75
2022-11-24T09:25:51.972Z,6.38
2022-11-24T09:28:18.804Z,4.10
2022-11-24T09:30:45.571Z,4.82
2022-11-24T09:33:12.364Z,5.30
2022-11-24T09:35:39.078Z,5.63
2022-11-24T09:38:05.935Z,4.63
2022-11-24T09:40:33.240Z,6.13
2022-11-24T09:43:06.655Z,6.47
2022-11-24T09:46:05.585Z,8.27
2022-11-24T09:48:54.729Z,4.88
2022-11-24T09:51:25.366Z,6.00
2022-11-24T09:53:59.209Z,5.77
2022-11-24T09:56:33.435Z,5.65
2022-11-24T09:59:11.023Z,5.65
2022-11-24T10:01:41.845Z,7.18
2022-11-24T10:04:18.860Z,5.68
2022-11-24T10:07:01.161Z,8.57
2022-11-24T10:09:49.162Z,6.18
2022-11-24T10:12:49.098Z,7.35
2022-11-24T10:15:53.293Z,5.72
2022-11-24T10:18:46.471Z,7.60
2022-11-24T10:21:26.343Z,8.03
2022-11-24T10:24:27.091Z,7.30
2022-11-24T10:27:02.511Z,7.60
2022-11-24T10:29:29.297Z,7.22
2022-11-24T10:31:57.009Z,8.73
2022-11-24T10:34:37.305Z,6.80
2022-11-24T10:37:18.013Z,5.72
2022-11-24T10:39:59.716Z,9.85
2022-11-24T10:42:28.867Z,7.03
2022-11-24T10:45:08.889Z,8.38
2022-11-24T10:47:35.965Z,5.77
2022-11-24T10:50:06.329Z,6.43
2022-11-24T10:52:41.387Z,8.18
2022-11-24T10:55:08.519Z,5.40
2022-11-24T10:57:39.317Z,6.65
2022-11-24T11:00:31.150Z,6.63
2022-11-24T11:03:34.011Z,6.45
2022-11-24T11:06:12.224Z,8.20
2022-11-24T11:08:40.729Z,4.60
2022-11-24T11:11:20.762Z,9.45
2022-11-24T11:13:59.775Z,5.87
2022-11-24T11:16:40.571Z,6.30
2022-11-24T11:20:01.558Z,6.65
2022-11-24T11:22:32.506Z,6.25
2022-11-24T11:25:33.738Z,6.70
2022-11-24T11:28:19.279Z,7.03
2022-11-24T11:31:16.633Z,8.13
2022-11-24T11:34:03.727Z,6.40
2022-11-24T11:36:41.317Z,5.63
2022-11-24T11:39:22.270Z,7.28
2022-11-24T11:41:53.861Z,7.83
2022-11-24T11:44:23.653Z,7.35
2022-11-24T11:46:50.482Z,5.72
2022-11-24T11:49:17.512Z,6.50
2022-11-24T11:55:11.424Z,6.27
2022-11-24T11:57:58.374Z,5.15
2022-11-24T12:00:25.182Z,6.40
2022-11-24T12:03:12.548Z,6.93
2022-11-24T12:05:51.168Z,6.78
2022-11-24T12:09:03.248Z,5.97
2022-11-24T12:11:43.008Z,6.85
2022-11-24T12:14:30.713Z,7.65
2022-11-24T12:17:04.640Z,8.38
2022-11-24T12:19:49.035Z,7.07
2022-11-24T12:22:33.567Z,7.20
2022-11-24T12:25:35.428Z,8.55
2022-11-24T12:28:06.161Z,8.55
2022-11-24T12:30:59.186Z,5.97
2022-11-24T12:33:55.366Z,6.88
2022-11-24T12:36:53.248Z,7.80
2022-11-24T12:39:32.564Z,9.65
2022-11-24T12:42:38.091Z,7.10
2022-11-24T12:45:13.209Z,7.32
2022-11-24T12:47:58.193Z,9.25
2022-11-24T12:50:29.245Z,10.70
2022-11-24T12:53:19.261Z,10.00
2022-11-24T12:55:47.108Z,7.38
2022-11-24T12:58:21.044Z,7.15
2022-11-24T13:01:21.736Z,6.45
2022-11-24T13:03:56.256Z,6.70
2022-11-24T13:06:26.325Z,7.32
2022-11-24T13:08:53.320Z,6.63
2022-11-24T13:11:23.135Z,7.03
2022-11-24T13:14:14.957Z,6.15
2022-11-24T13:17:33.729Z,9.33
2022-11-24T13:20:20.259Z,10.15
2022-11-24T13:22:56.792Z,9.15
2022-11-24T13:25:24.668Z,8.00
2022-11-24T13:28:05.771Z,8.60
2022-11-24T13:30:35.173Z,7.97
2022-11-24T13:33:15.825Z,7.72
2022-11-24T13:36:03.471Z,7.65
2022-11-24T13:38:43.527Z,6.80
2022-11-24T13:41:32.202Z,7.57
2022-11-24T13:44:14.013Z,7.10
2022-11-24T13:47:05.572Z,6.28
2022-11-24T13:49:40.800Z,8.20
2022-11-24T13:52:44.618Z,7.95
2022-11-24T13:55:14.332Z,6.47
2022-11-24T13:57:45.476Z,7.03
2022-11-24T14:00:37.071Z,4.82
2022-11-24T14:03:29.921Z,5.68
2022-11-24T14:05:57.669Z,4.97
2022-11-24T14:08:28.310Z,5.75
2022-11-24T14:10:57.632Z,4.07
2022-11-24T14:13:27.258Z,4.50
2022-11-24T14:16:09.080Z,7.07
2022-11-24T14:18:38.581Z,4.03
2022-11-24T14:21:20.660Z,7.03
2022-11-24T14:23:57.652Z,4.67
2022-11-24T14:26:33.912Z,4.22
2022-11-24T14:29:15.472Z,6.43
2022-11-24T14:31:52.164Z,5.40
2022-11-24T14:34:21.909Z,4.95
2022-11-24T14:36:49.773Z,4.77
2022-11-24T14:39:18.745Z,6.32
2022-11-24T14:42:07.735Z,4.80
2022-11-24T14:44:35.052Z,3.55
2022-11-24T14:47:24.505Z,4.43
2022-11-24T14:49:55.432Z,3.93
2022-11-24T14:52:23.775Z,6.63
2022-11-24T14:55:07.520Z,4.43
2022-11-24T14:57:44.656Z,4.93
2022-11-24T15:00:25.278Z,5.18
2022-11-24T15:03:13.339Z,5.37
2022-11-24T15:05:52.150Z,4.70
2022-11-24T15:08:19.086Z,4.82
2022-11-24T15:10:46.701Z,4.38
2022-11-24T15:13:21.164Z,6.30
2022-11-24T15:16:03.188Z,6.90
2022-11-24T15:18:42.885Z,5.05
2022-11-24T15:21:15.744Z,5.03
2022-11-24T15:24:06.386Z,4.15
2022-11-24T15:26:36.922Z,5.45
2022-11-24T15:29:09.430Z,5.10
2022-11-24T15:31:37.818Z,5.13
2022-11-24T15:34:04.816Z,5.90
2022-11-24T15:36:32.065Z,6.20
2022-11-24T15:38:59.095Z,4.60
2022-11-24T15:41:31.985Z,6.30
2022-11-24T15:43:59.395Z,4.75
2022-11-24T15:46:31.384Z,5.20
2022-11-24T15:48:58.327Z,6.13
2022-11-24T15:51:26.436Z,6.68
2022-11-24T15:54:00.273Z,3.80
2022-11-24T15:56:36.016Z,5.07
2022-11-24T15:59:04.146Z,5.60
2022-11-24T16:01:33.870Z,4.30
2022-11-24T16:04:03.285Z,5.15
2022-11-24T16:06:30.162Z,4.97
2022-11-24T16:08:57.039Z,5.05
2022-11-24T16:11:25.505Z,5.88
2022-11-24T16:13:54.204Z,4.65
2022-11-24T16:16:23.489Z,5.35
2022-11-24T16:18:51.291Z,6.00
2022-11-24T16:21:18.354Z,4.28
2022-11-24T16:23:45.110Z,6.65
2022-11-24T16:26:12.223Z,5.63
2022-11-24T16:28:39.419Z,4.97
2022-11-24T16:31:06.431Z,5.57
2022-11-24T16:33:33.280Z,9.02
2022-11-24T16:36:00.689Z,7.72
2022-11-24T16:38:28.270Z,5.00
2022-11-24T16:40:56.581Z,7.85
2022-11-24T16:43:23.697Z,7.27
2022-11-24T16:46:18.051Z,11.32
2022-11-24T16:48:46.478Z,6.20
2022-11-24T16:51:14.562Z,7.20
2022-11-24T16:53:41.690Z,5.05
2022-11-24T16:56:09.657Z,5.03
2022-11-24T16:58:40.920Z,6.03
2022-11-24T17:01:13.422Z,5.97
2022-11-24T17:03:41.471Z,7.68
2022-11-24T17:06:11.597Z,6.03
2022-11-24T17:08:40.555Z,7.23
2022-11-24T17:11:10.073Z,7.43
2022-11-24T17:13:37.808Z,5.90
2022-11-24T17:16:13.886Z,4.70
2022-11-24T17:18:42.024Z,5.50
2022-11-24T17:21:17.237Z,4.70
2022-11-24T17:23:45.235Z,4.70
2022-11-24T17:26:15.605Z,4.80
2022-11-24T17:28:43.757Z,6.25
2022-11-24T17:31:26.504Z,7.90
2022-11-24T17:33:56.488Z,4.93
2022-11-24T17:36:24.017Z,6.15
2022-11-24T17:38:51.519Z,7.18
2022-11-24T17:41:22.599Z,5.22
2022-11-24T17:43:55.160Z,4.95
2022-11-24T17:46:27.301Z,7.40
2022-11-24T17:48:56.277Z,6.13
2022-11-24T17:51:26.398Z,7.00
2022-11-24T17:53:55.488Z,4.57
2022-11-24T17:56:25.268Z,7.07
2022-11-24T17:58:54.341Z,8.27
2022-11-24T18:01:22.859Z,5.90
2022-11-24T18:03:53.836Z,7.90
2022-11-24T18:06:22.432Z,6.68
2022-11-24T18:08:50.077Z,6.40
2022-11-24T18:11:25.913Z,6.63
2022-11-24T18:14:00.783Z,6.60
2022-11-24T18:16:35.126Z,5.90
2022-11-24T18:19:09.078Z,6.60
2022-11-24T18:21:42.115Z,8.70
2022-11-24T18:24:13.883Z,5.87
2022-11-24T18:26:44.292Z,7.78
2022-11-24T18:29:12.682Z,5.57
2022-11-24T18:31:39.805Z,5.72
2022-11-24T18:34:07.374Z,5.82
2022-11-24T18:36:35.936Z,6.27
2022-11-24T18:39:08.570Z,5.55
2022-11-24T18:41:37.285Z,4.25
2022-11-24T18:44:05.613Z,2.97
2022-11-24T18:46:33.882Z,5.88
2022-11-24T18:49:03.030Z,5.13
2022-11-24T18:51:31.077Z,4.00
2022-11-24T18:53:58.863Z,4.28
2022-11-24T18:56:27.360Z,3.47
2022-11-24T18:58:57.328Z,5.45
2022-11-24T19:01:28.798Z,4.83
2022-11-24T19:04:01.448Z,5.70
2022-11-24T19:06:32.756Z,5.78
2022-11-24T19:09:07.199Z,3.88
2022-11-24T19:11:38.046Z,4.28
2022-11-24T19:14:09.530Z,3.63
2022-11-24T19:16:41.270Z,2.83
2022-11-24T19:19:12.447Z,3.92
2022-11-24T19:21:41.199Z,4.82
2022-11-24T19:24:11.309Z,4.10
2022-11-24T19:26:40.690Z,4.93
2022-11-24T19:29:09.424Z,4.05
2022-11-24T19:31:39.716Z,4.00
2022-11-24T19:34:07.885Z,3.00
2022-11-24T19:36:35.841Z,2.67
2022-11-24T19:39:03.417Z,3.77
2022-11-24T19:41:32.896Z,3.13
2022-11-24T19:44:00.584Z,3.50
2022-11-24T19:46:29.794Z,3.90
2022-11-24T19:49:01.577Z,2.90
2022-11-24T19:51:40.803Z,3.27
2022-11-24T19:54:12.810Z,3.50
2022-11-24T19:56:40.633Z,2.30
2022-11-24T19:59:08.956Z,3.00
2022-11-24T20:01:40.321Z,2.40
2022-11-24T20:04:11.434Z,2.40
2022-11-24T20:06:41.578Z,3.10
2022-11-24T20:09:12.826Z,3.40
2022-11-24T20:11:41.993Z,3.25
2022-11-24T20:14:16.991Z,2.72
2022-11-24T20:16:44.887Z,3.40
2022-11-24T20:19:14.852Z,3.33
2022-11-24T20:21:44.301Z,3.75
2022-11-24T20:24:15.197Z,5.70
2022-11-24T20:26:47.420Z,3.33
2022-11-24T20:29:17.740Z,4.73
2022-11-24T20:31:54.880Z,3.60
2022-11-24T20:34:25.834Z,3.60
2022-11-24T20:36:53.561Z,3.83
2022-11-24T20:39:24.500Z,2.65
2022-11-24T20:41:53.211Z,2.77
2022-11-24T20:44:22.209Z,2.95
2022-11-24T20:46:52.052Z,2.70
2022-11-24T20:49:20.506Z,3.58
2022-11-24T20:51:48.902Z,3.58
2022-11-24T20:54:18.863Z,5.03
2022-11-24T20:56:48.072Z,3.08
2022-11-24T20:59:18.393Z,3.70
2022-11-24T21:01:46.836Z,3.72
2022-11-24T21:04:20.224Z,2.58
2022-11-24T21:06:48.389Z,4.40
2022-11-24T21:09:16.093Z,2.75
2022-11-24T21:11:43.697Z,3.38
2022-11-24T21:14:11.968Z,2.70
2022-11-24T21:16:42.520Z,3.08
2022-11-24T21:19:15.888Z,4.33
2022-11-24T21:21:44.843Z,3.95
2022-11-24T21:24:14.750Z,2.50
2022-11-24T21:26:43.878Z,3.70
2022-11-24T21:29:15.335Z,3.63
2022-11-24T21:31:42.695Z,2.70
2022-11-24T21:34:14.349Z,2.67
2022-11-24T21:36:41.746Z,2.95
2022-11-24T21:39:10.728Z,3.40
2022-11-24T21:41:38.375Z,2.50
2022-11-24T21:44:05.260Z,3.53
2022-11-24T21:46:32.123Z,3.13
2022-11-24T21:48:58.920Z,2.08
2022-11-24T21:51:25.982Z,3.50
2022-11-24T21:53:53.791Z,3.22
2022-11-24T21:56:22.729Z,2.93
2022-11-24T21:58:55.510Z,2.60
2022-11-24T22:01:25.109Z,3.25
2022-11-24T22:03:52.043Z,2.78
2022-11-24T22:06:20.801Z,2.95
2022-11-24T22:08:49.054Z,2.53
2022-11-24T22:11:24.516Z,2.75
2022-11-24T22:13:52.775Z,2.95
2022-11-24T22:16:22.461Z,2.78
2022-11-24T22:18:50.312Z,2.45
2022-11-24T22:21:20.641Z,3.73
2022-11-24T22:23:51.634Z,4.00
2022-11-24T22:26:21.425Z,2.60
2022-11-24T22:28:49.512Z,2.60
2022-11-24T22:31:31.016Z,3.47
2022-11-24T22:33:59.443Z,4.53
2022-11-24T22:36:29.370Z,3.95
2022-11-24T22:38:58.465Z,3.20
2022-11-24T22:41:26.133Z,3.47
2022-11-24T22:43:53.656Z,3.05
2022-11-24T22:46:23.357Z,3.13
2022-11-24T22:48:52.375Z,4.55
2022-11-24T22:51:23.574Z,4.45
2022-11-24T22:53:56.876Z,2.50
2022-11-24T22:56:25.225Z,2.88
2022-11-24T22:58:51.935Z,4.00
2022-11-24T23:01:21.807Z,2.78
2022-11-24T23:03:49.738Z,4.20
2022-11-24T23:06:20.481Z,3.20
2022-11-24T23:08:50.168Z,4.10
2022-11-24T23:11:36.583Z,4.50
2022-11-24T23:14:07.633Z,3.97
2022-11-24T23:16:34.603Z,3.17
2022-11-24T23:19:01.400Z,3.92
2022-11-24T23:21:30.800Z,3.42
2022-11-24T23:24:22.910Z,2.60
2022-11-24T23:26:49.741Z,3.95
2022-11-24T23:29:16.469Z,4.35
2022-11-24T23:31:44.649Z,3.38
2022-11-24T23:34:11.641Z,4.70
2022-11-24T23:36:39.492Z,4.47
2022-11-24T23:39:09.192Z,4.68
2022-11-24T23:41:36.221Z,4.28
2022-11-24T23:44:03.293Z,3.20
2022-11-24T23:46:30.506Z,4.65
2022-11-24T23:48:57.405Z,3.13
2022-11-24T23:51:27.401Z,3.67
2022-11-24T23:53:55.852Z,5.40
2022-11-24T23:56:25.313Z,2.83
2022-11-24T23:58:52.220Z,2.65
